sensor_id;sensor_type;location;lat;lon;timestamp;temperature;humidity
37410;DHT22;23275;48.914;12.566;2024-03-23T00:52:16;9.20;99.90
37410;DHT22;23275;48.914;12.566;2024-03-23T00:54:41;9.10;99.90
37410;DHT22;23275;48.914;12.566;2024-03-23T00:57:07;9.00;99.90
37410;DHT22;23275;48.914;12.566;2024-03-23T00:59:33;9.00;99.90
37410;DHT22;23275;48.914;12.566;2024-03-23T01:01:58;8.90;99.90
37410;DHT22;23275;48.914;12.566;2024-03-23T01:04:24;8.90;99.90
37410;DHT22;23275;48.914;12.566;2024-03-23T01:06:50;8.90;99.90
37410;DHT22;23275;48.914;12.566;2024-03-23T01:09:15;8.90;99.90
37410;DHT22;23275;48.914;12.566;2024-03-23T01:11:41;8.80;99.90
37410;DHT22;23275;48.914;12.566;2024-03-23T01:14:06;8.70;99.90
37410;DHT22;23275;48.914;12.566;2024-03-23T01:16:32;8.70;99.90
37410;DHT22;23275;48.914;12.566;2024-03-23T01:18:58;8.70;99.90
37410;DHT22;23275;48.914;12.566;2024-03-23T01:21:24;8.80;99.90
37410;DHT22;23275;48.914;12.566;2024-03-23T01:23:49;8.80;99.90
37410;DHT22;23275;48.914;12.566;2024-03-23T01:26:15;8.80;99.90
37410;DHT22;23275;48.914;12.566;2024-03-23T01:28:40;8.80;99.90
37410;DHT22;23275;48.914;12.566;2024-03-23T01:31:06;8.80;99.90
37410;DHT22;23275;48.914;12.566;2024-03-23T01:33:31;8.80;99.90
37410;DHT22;23275;48.914;12.566;2024-03-23T01:35:57;8.70;99.90
37410;DHT22;23275;48.914;12.566;2024-03-23T01:38:23;8.60;99.90
37410;DHT22;23275;48.914;12.566;2024-03-23T01:40:48;8.60;99.90
37410;DHT22;23275;48.914;12.566;2024-03-23T01:43:14;8.60;99.90
37410;DHT22;23275;48.914;12.566;2024-03-23T01:45:40;8.50;99.90
37410;DHT22;23275;48.914;12.566;2024-03-23T01:48:06;8.60;99.90
37410;DHT22;23275;48.914;12.566;2024-03-23T01:50:32;8.50;99.90
37410;DHT22;23275;48.914;12.566;2024-03-23T01:53:04;8.50;99.90
37410;DHT22;23275;48.914;12.566;2024-03-23T01:55:32;8.40;99.90
37410;DHT22;23275;48.914;12.566;2024-03-23T01:57:57;8.30;99.90
37410;DHT22;23275;48.914;12.566;2024-03-23T02:00:23;8.20;99.90
37410;DHT22;23275;48.914;12.566;2024-03-23T02:02:49;8.10;99.90
37410;DHT22;23275;48.914;12.566;2024-03-23T02:05:14;8.10;99.90
37410;DHT22;23275;48.914;12.566;2024-03-23T02:07:41;8.10;99.90
37410;DHT22;23275;48.914;12.566;2024-03-23T02:10:07;8.20;99.90
37410;DHT22;23275;48.914;12.566;2024-03-23T02:12:33;8.20;99.90
37410;DHT22;23275;48.914;12.566;2024-03-23T02:14:59;8.30;99.90
37410;DHT22;23275;48.914;12.566;2024-03-23T02:17:25;8.30;99.90
37410;DHT22;23275;48.914;12.566;2024-03-23T02:19:51;8.30;99.90
37410;DHT22;23275;48.914;12.566;2024-03-23T02:22:16;8.30;99.90
37410;DHT22;23275;48.914;12.566;2024-03-23T02:24:42;8.20;99.90
37410;DHT22;23275;48.914;12.566;2024-03-23T02:27:08;8.20;99.90
37410;DHT22;23275;48.914;12.566;2024-03-23T02:29:34;8.10;99.90
37410;DHT22;23275;48.914;12.566;2024-03-23T02:31:59;7.90;99.90
37410;DHT22;23275;48.914;12.566;2024-03-23T02:34:25;7.90;99.90
37410;DHT22;23275;48.914;12.566;2024-03-23T02:36:51;7.90;99.90
37410;DHT22;23275;48.914;12.566;2024-03-23T02:39:16;7.90;99.90
37410;DHT22;23275;48.914;12.566;2024-03-23T02:41:42;8.00;99.90
37410;DHT22;23275;48.914;12.566;2024-03-23T02:44:07;7.90;99.90
37410;DHT22;23275;48.914;12.566;2024-03-23T02:46:33;7.90;99.90
37410;DHT22;23275;48.914;12.566;2024-03-23T02:48:59;7.80;99.90
37410;DHT22;23275;48.914;12.566;2024-03-23T02:51:24;7.80;99.90
37410;DHT22;23275;48.914;12.566;2024-03-23T02:53:50;7.80;99.90
37410;DHT22;23275;48.914;12.566;2024-03-23T02:56:15;7.80;99.90
37410;DHT22;23275;48.914;12.566;2024-03-23T02:58:42;7.80;99.90
37410;DHT22;23275;48.914;12.566;2024-03-23T03:01:08;7.90;99.90
37410;DHT22;23275;48.914;12.566;2024-03-23T03:03:34;7.80;99.90
37410;DHT22;23275;48.914;12.566;2024-03-23T03:05:59;7.90;99.90
37410;DHT22;23275;48.914;12.566;2024-03-23T03:08:25;7.90;99.90
37410;DHT22;23275;48.914;12.566;2024-03-23T03:10:50;7.80;99.90
37410;DHT22;23275;48.914;12.566;2024-03-23T03:13:16;7.80;99.90
37410;DHT22;23275;48.914;12.566;2024-03-23T03:15:43;7.80;99.90
37410;DHT22;23275;48.914;12.566;2024-03-23T03:18:09;7.70;99.90
37410;DHT22;23275;48.914;12.566;2024-03-23T03:20:38;7.70;99.90
37410;DHT22;23275;48.914;12.566;2024-03-23T03:23:05;7.60;99.90
37410;DHT22;23275;48.914;12.566;2024-03-23T03:25:30;7.50;99.90
37410;DHT22;23275;48.914;12.566;2024-03-23T03:27:56;7.40;99.90
37410;DHT22;23275;48.914;12.566;2024-03-23T03:30:21;7.30;99.90
37410;DHT22;23275;48.914;12.566;2024-03-23T03:32:47;7.30;99.90
37410;DHT22;23275;48.914;12.566;2024-03-23T03:35:13;7.30;99.90
37410;DHT22;23275;48.914;12.566;2024-03-23T03:37:38;7.40;99.90
37410;DHT22;23275;48.914;12.566;2024-03-23T03:40:04;7.40;99.90
37410;DHT22;23275;48.914;12.566;2024-03-23T03:42:30;7.40;99.90
37410;DHT22;23275;48.914;12.566;2024-03-23T03:44:55;7.30;99.90
37410;DHT22;23275;48.914;12.566;2024-03-23T03:47:21;7.30;99.90
37410;DHT22;23275;48.914;12.566;2024-03-23T03:49:47;7.50;99.90
37410;DHT22;23275;48.914;12.566;2024-03-23T03:52:13;7.60;99.90
37410;DHT22;23275;48.914;12.566;2024-03-23T03:54:38;7.70;99.90
37410;DHT22;23275;48.914;12.566;2024-03-23T03:57:04;7.70;99.90
37410;DHT22;23275;48.914;12.566;2024-03-23T03:59:29;7.70;99.90
37410;DHT22;23275;48.914;12.566;2024-03-23T04:01:55;7.70;99.90
37410;DHT22;23275;48.914;12.566;2024-03-23T04:04:20;7.70;99.90
37410;DHT22;23275;48.914;12.566;2024-03-23T04:06:47;7.70;99.90
37410;DHT22;23275;48.914;12.566;2024-03-23T04:09:13;7.60;99.90
37410;DHT22;23275;48.914;12.566;2024-03-23T04:11:38;7.50;99.90
37410;DHT22;23275;48.914;12.566;2024-03-23T04:14:04;7.40;99.90
37410;DHT22;23275;48.914;12.566;2024-03-23T04:16:34;7.30;99.90
37410;DHT22;23275;48.914;12.566;2024-03-23T04:19:00;7.20;99.90
37410;DHT22;23275;48.914;12.566;2024-03-23T04:21:26;7.20;99.90
37410;DHT22;23275;48.914;12.566;2024-03-23T04:23:52;7.20;99.90
37410;DHT22;23275;48.914;12.566;2024-03-23T04:26:17;7.30;99.90
37410;DHT22;23275;48.914;12.566;2024-03-23T04:28:43;7.40;99.90
37410;DHT22;23275;48.914;12.566;2024-03-23T04:31:09;7.40;99.90
37410;DHT22;23275;48.914;12.566;2024-03-23T04:33:34;7.50;99.90
37410;DHT22;23275;48.914;12.566;2024-03-23T04:36:00;7.60;99.90
37410;DHT22;23275;48.914;12.566;2024-03-23T04:38:25;7.70;99.90
37410;DHT22;23275;48.914;12.566;2024-03-23T04:40:58;7.70;99.90
37410;DHT22;23275;48.914;12.566;2024-03-23T04:43:23;7.80;99.90
37410;DHT22;23275;48.914;12.566;2024-03-23T04:45:49;7.80;99.90
37410;DHT22;23275;48.914;12.566;2024-03-23T04:48:15;7.90;99.90
37410;DHT22;23275;48.914;12.566;2024-03-23T04:50:41;8.00;99.90
37410;DHT22;23275;48.914;12.566;2024-03-23T04:53:07;8.00;99.90
37410;DHT22;23275;48.914;12.566;2024-03-23T04:55:32;7.90;99.90
37410;DHT22;23275;48.914;12.566;2024-03-23T04:57:58;7.90;99.90
37410;DHT22;23275;48.914;12.566;2024-03-23T05:00:23;7.90;99.90
37410;DHT22;23275;48.914;12.566;2024-03-23T05:02:50;7.90;99.90
37410;DHT22;23275;48.914;12.566;2024-03-23T05:05:16;7.80;99.90
37410;DHT22;23275;48.914;12.566;2024-03-23T05:07:41;7.80;99.90
37410;DHT22;23275;48.914;12.566;2024-03-23T05:10:08;7.80;99.90
37410;DHT22;23275;48.914;12.566;2024-03-23T05:12:37;7.90;99.90
37410;DHT22;23275;48.914;12.566;2024-03-23T05:15:04;8.00;99.90
37410;DHT22;23275;48.914;12.566;2024-03-23T05:17:30;8.00;99.90
37410;DHT22;23275;48.914;12.566;2024-03-23T05:19:56;8.10;99.90
37410;DHT22;23275;48.914;12.566;2024-03-23T05:22:22;8.10;99.90
37410;DHT22;23275;48.914;12.566;2024-03-23T05:24:48;8.20;99.90
37410;DHT22;23275;48.914;12.566;2024-03-23T05:27:14;8.20;99.90
37410;DHT22;23275;48.914;12.566;2024-03-23T05:29:40;8.20;99.90
37410;DHT22;23275;48.914;12.566;2024-03-23T05:32:06;8.20;99.90
37410;DHT22;23275;48.914;12.566;2024-03-23T05:34:31;8.20;99.90
37410;DHT22;23275;48.914;12.566;2024-03-23T05:36:57;8.20;99.90
37410;DHT22;23275;48.914;12.566;2024-03-23T05:39:22;8.40;99.90
37410;DHT22;23275;48.914;12.566;2024-03-23T05:41:49;8.40;99.90
37410;DHT22;23275;48.914;12.566;2024-03-23T05:44:14;8.40;99.90
37410;DHT22;23275;48.914;12.566;2024-03-23T05:46:41;8.40;99.90
37410;DHT22;23275;48.914;12.566;2024-03-23T05:49:06;8.40;99.90
37410;DHT22;23275;48.914;12.566;2024-03-23T05:51:32;8.40;99.90
37410;DHT22;23275;48.914;12.566;2024-03-23T05:53:57;8.40;99.90
37410;DHT22;23275;48.914;12.566;2024-03-23T05:56:23;8.50;99.90
37410;DHT22;23275;48.914;12.566;2024-03-23T05:58:48;8.50;99.90
37410;DHT22;23275;48.914;12.566;2024-03-23T06:01:14;8.60;99.90
37410;DHT22;23275;48.914;12.566;2024-03-23T06:03:39;8.60;99.90
37410;DHT22;23275;48.914;12.566;2024-03-23T06:06:05;8.70;99.90
37410;DHT22;23275;48.914;12.566;2024-03-23T06:08:35;8.70;99.90
37410;DHT22;23275;48.914;12.566;2024-03-23T06:11:01;8.80;99.90
37410;DHT22;23275;48.914;12.566;2024-03-23T06:13:26;8.80;99.90
37410;DHT22;23275;48.914;12.566;2024-03-23T06:15:55;8.80;99.90
37410;DHT22;23275;48.914;12.566;2024-03-23T06:18:21;8.90;99.90
37410;DHT22;23275;48.914;12.566;2024-03-23T06:20:46;8.90;99.90
37410;DHT22;23275;48.914;12.566;2024-03-23T06:23:12;8.80;99.90
37410;DHT22;23275;48.914;12.566;2024-03-23T06:25:38;8.90;99.90
37410;DHT22;23275;48.914;12.566;2024-03-23T06:28:04;9.00;99.90
37410;DHT22;23275;48.914;12.566;2024-03-23T06:30:30;9.00;99.90
37410;DHT22;23275;48.914;12.566;2024-03-23T06:32:57;9.00;99.90
37410;DHT22;23275;48.914;12.566;2024-03-23T06:35:23;9.00;99.90
37410;DHT22;23275;48.914;12.566;2024-03-23T06:37:48;9.20;99.90
37410;DHT22;23275;48.914;12.566;2024-03-23T06:40:14;9.30;99.90
37410;DHT22;23275;48.914;12.566;2024-03-23T06:42:39;9.40;99.90
37410;DHT22;23275;48.914;12.566;2024-03-23T06:45:05;9.40;99.90
37410;DHT22;23275;48.914;12.566;2024-03-23T06:47:31;9.40;99.90
37410;DHT22;23275;48.914;12.566;2024-03-23T06:49:58;9.70;99.90
37410;DHT22;23275;48.914;12.566;2024-03-23T06:52:28;10.10;99.90
37410;DHT22;23275;48.914;12.566;2024-03-23T06:54:53;10.60;99.90
37410;DHT22;23275;48.914;12.566;2024-03-23T06:57:19;10.90;99.90
37410;DHT22;23275;48.914;12.566;2024-03-23T06:59:44;11.50;99.90
37410;DHT22;23275;48.914;12.566;2024-03-23T07:02:10;11.80;99.90
37410;DHT22;23275;48.914;12.566;2024-03-23T07:04:36;12.10;99.90
37410;DHT22;23275;48.914;12.566;2024-03-23T07:07:02;12.20;99.90
37410;DHT22;23275;48.914;12.566;2024-03-23T07:09:28;12.30;99.90
37410;DHT22;23275;48.914;12.566;2024-03-23T07:11:55;12.40;99.90
37410;DHT22;23275;48.914;12.566;2024-03-23T07:14:22;12.30;99.90
37410;DHT22;23275;48.914;12.566;2024-03-23T07:16:48;12.50;99.90
37410;DHT22;23275;48.914;12.566;2024-03-23T07:19:15;12.70;99.90
37410;DHT22;23275;48.914;12.566;2024-03-23T07:21:42;12.40;99.90
37410;DHT22;23275;48.914;12.566;2024-03-23T07:24:08;12.30;99.90
37410;DHT22;23275;48.914;12.566;2024-03-23T07:26:33;12.30;99.90
37410;DHT22;23275;48.914;12.566;2024-03-23T07:28:59;12.80;99.90
37410;DHT22;23275;48.914;12.566;2024-03-23T07:31:24;13.40;99.90
37410;DHT22;23275;48.914;12.566;2024-03-23T07:33:50;13.80;99.90
37410;DHT22;23275;48.914;12.566;2024-03-23T07:36:16;14.40;99.90
37410;DHT22;23275;48.914;12.566;2024-03-23T07:38:44;15.10;99.90
37410;DHT22;23275;48.914;12.566;2024-03-23T07:41:20;15.20;99.90
37410;DHT22;23275;48.914;12.566;2024-03-23T07:43:47;14.80;99.90
37410;DHT22;23275;48.914;12.566;2024-03-23T07:46:14;14.20;99.90
37410;DHT22;23275;48.914;12.566;2024-03-23T07:48:40;13.90;99.90
37410;DHT22;23275;48.914;12.566;2024-03-23T07:51:10;13.80;99.90
37410;DHT22;23275;48.914;12.566;2024-03-23T07:53:36;13.40;99.90
37410;DHT22;23275;48.914;12.566;2024-03-23T07:56:07;13.10;99.90
37410;DHT22;23275;48.914;12.566;2024-03-23T07:58:33;13.00;99.90
37410;DHT22;23275;48.914;12.566;2024-03-23T08:03:33;12.60;99.90
37410;DHT22;23275;48.914;12.566;2024-03-23T08:06:07;12.50;99.90
37410;DHT22;23275;48.914;12.566;2024-03-23T08:08:33;12.30;99.90
37410;DHT22;23275;48.914;12.566;2024-03-23T08:10:58;12.30;99.90
37410;DHT22;23275;48.914;12.566;2024-03-23T08:13:24;12.20;99.90
37410;DHT22;23275;48.914;12.566;2024-03-23T08:15:49;12.10;99.90
37410;DHT22;23275;48.914;12.566;2024-03-23T08:18:15;12.00;99.90
37410;DHT22;23275;48.914;12.566;2024-03-23T08:20:43;11.80;99.90
37410;DHT22;23275;48.914;12.566;2024-03-23T08:23:09;11.70;99.90
37410;DHT22;23275;48.914;12.566;2024-03-23T08:25:35;11.60;99.90
37410;DHT22;23275;48.914;12.566;2024-03-23T08:28:00;11.40;99.90
37410;DHT22;23275;48.914;12.566;2024-03-23T08:30:26;11.30;99.90
37410;DHT22;23275;48.914;12.566;2024-03-23T08:32:52;11.20;99.90
37410;DHT22;23275;48.914;12.566;2024-03-23T08:35:18;11.10;99.90
37410;DHT22;23275;48.914;12.566;2024-03-23T08:37:43;11.00;99.90
37410;DHT22;23275;48.914;12.566;2024-03-23T08:40:09;10.80;99.90
37410;DHT22;23275;48.914;12.566;2024-03-23T08:42:35;10.80;99.90
37410;DHT22;23275;48.914;12.566;2024-03-23T08:45:01;10.70;99.90
37410;DHT22;23275;48.914;12.566;2024-03-23T08:47:26;10.70;99.90
37410;DHT22;23275;48.914;12.566;2024-03-23T08:49:52;10.60;99.90
37410;DHT22;23275;48.914;12.566;2024-03-23T08:52:18;10.60;99.90
37410;DHT22;23275;48.914;12.566;2024-03-23T08:54:43;10.50;99.90
37410;DHT22;23275;48.914;12.566;2024-03-23T08:57:09;10.50;99.90
37410;DHT22;23275;48.914;12.566;2024-03-23T08:59:35;10.50;99.90
37410;DHT22;23275;48.914;12.566;2024-03-23T09:02:00;10.40;99.90
37410;DHT22;23275;48.914;12.566;2024-03-23T09:04:26;10.40;99.90
37410;DHT22;23275;48.914;12.566;2024-03-23T09:06:52;10.30;99.90
37410;DHT22;23275;48.914;12.566;2024-03-23T09:09:17;10.20;99.90
37410;DHT22;23275;48.914;12.566;2024-03-23T09:11:43;10.20;99.90
37410;DHT22;23275;48.914;12.566;2024-03-23T09:14:08;10.20;99.90
37410;DHT22;23275;48.914;12.566;2024-03-23T09:16:34;10.20;99.90
37410;DHT22;23275;48.914;12.566;2024-03-23T09:19:00;10.30;99.90
37410;DHT22;23275;48.914;12.566;2024-03-23T09:21:26;10.30;99.90
37410;DHT22;23275;48.914;12.566;2024-03-23T09:23:51;10.40;99.90
37410;DHT22;23275;48.914;12.566;2024-03-23T09:26:17;10.40;99.90
37410;DHT22;23275;48.914;12.566;2024-03-23T09:28:43;10.40;99.90
37410;DHT22;23275;48.914;12.566;2024-03-23T09:31:09;10.40;99.90
37410;DHT22;23275;48.914;12.566;2024-03-23T09:33:36;10.40;99.90
37410;DHT22;23275;48.914;12.566;2024-03-23T09:36:06;10.50;99.90
37410;DHT22;23275;48.914;12.566;2024-03-23T09:38:32;10.50;99.90
37410;DHT22;23275;48.914;12.566;2024-03-23T09:40:58;10.60;99.90
37410;DHT22;23275;48.914;12.566;2024-03-23T09:43:25;10.60;99.90
37410;DHT22;23275;48.914;12.566;2024-03-23T09:45:50;10.60;99.90
37410;DHT22;23275;48.914;12.566;2024-03-23T09:48:17;10.50;99.90
37410;DHT22;23275;48.914;12.566;2024-03-23T09:50:44;10.50;99.90
37410;DHT22;23275;48.914;12.566;2024-03-23T09:53:11;10.50;99.90
37410;DHT22;23275;48.914;12.566;2024-03-23T09:55:38;10.50;99.90
37410;DHT22;23275;48.914;12.566;2024-03-23T09:58:04;10.60;99.90
37410;DHT22;23275;48.914;12.566;2024-03-23T10:00:34;10.70;99.90
37410;DHT22;23275;48.914;12.566;2024-03-23T10:02:59;10.80;99.90
37410;DHT22;23275;48.914;12.566;2024-03-23T10:05:31;10.80;99.90
37410;DHT22;23275;48.914;12.566;2024-03-23T10:08:18;10.90;99.90
37410;DHT22;23275;48.914;12.566;2024-03-23T10:10:47;11.10;99.90
37410;DHT22;23275;48.914;12.566;2024-03-23T10:13:26;11.30;99.90
37410;DHT22;23275;48.914;12.566;2024-03-23T10:15:56;11.40;99.90
37410;DHT22;23275;48.914;12.566;2024-03-23T10:18:23;11.50;99.90
37410;DHT22;23275;48.914;12.566;2024-03-23T10:23:32;11.50;99.90
37410;DHT22;23275;48.914;12.566;2024-03-23T10:26:19;11.50;99.90
37410;DHT22;23275;48.914;12.566;2024-03-23T10:29:00;11.50;99.90
37410;DHT22;23275;48.914;12.566;2024-03-23T10:31:36;11.40;99.90
37410;DHT22;23275;48.914;12.566;2024-03-23T10:34:03;11.30;99.90
37410;DHT22;23275;48.914;12.566;2024-03-23T10:36:30;11.30;99.90
37410;DHT22;23275;48.914;12.566;2024-03-23T10:38:56;11.30;99.90
37410;DHT22;23275;48.914;12.566;2024-03-23T10:41:26;11.20;99.90
37410;DHT22;23275;48.914;12.566;2024-03-23T10:43:53;11.20;99.90
37410;DHT22;23275;48.914;12.566;2024-03-23T10:46:20;11.10;99.90
37410;DHT22;23275;48.914;12.566;2024-03-23T10:48:46;11.00;99.90
37410;DHT22;23275;48.914;12.566;2024-03-23T10:51:13;11.00;99.90
37410;DHT22;23275;48.914;12.566;2024-03-23T10:53:39;10.90;99.90
37410;DHT22;23275;48.914;12.566;2024-03-23T10:56:06;10.80;99.90
37410;DHT22;23275;48.914;12.566;2024-03-23T10:58:36;10.60;99.90
37410;DHT22;23275;48.914;12.566;2024-03-23T11:01:03;10.40;99.90
37410;DHT22;23275;48.914;12.566;2024-03-23T11:03:33;10.40;99.90
37410;DHT22;23275;48.914;12.566;2024-03-23T11:05:59;10.50;99.90
37410;DHT22;23275;48.914;12.566;2024-03-23T11:08:36;10.60;99.90
37410;DHT22;23275;48.914;12.566;2024-03-23T11:11:22;10.80;99.90
37410;DHT22;23275;48.914;12.566;2024-03-23T11:13:53;11.10;99.90
37410;DHT22;23275;48.914;12.566;2024-03-23T11:16:29;11.50;99.90
37410;DHT22;23275;48.914;12.566;2024-03-23T11:19:35;12.10;99.90
37410;DHT22;23275;48.914;12.566;2024-03-23T11:22:02;12.60;99.90
37410;DHT22;23275;48.914;12.566;2024-03-23T11:24:27;13.00;99.90
37410;DHT22;23275;48.914;12.566;2024-03-23T11:26:53;13.40;99.90
37410;DHT22;23275;48.914;12.566;2024-03-23T11:29:18;13.60;99.90
37410;DHT22;23275;48.914;12.566;2024-03-23T11:31:48;13.70;99.90
37410;DHT22;23275;48.914;12.566;2024-03-23T11:34:15;13.60;99.90
37410;DHT22;23275;48.914;12.566;2024-03-23T11:36:45;13.40;99.90
37410;DHT22;23275;48.914;12.566;2024-03-23T11:39:14;13.40;99.90
37410;DHT22;23275;48.914;12.566;2024-03-23T11:41:52;13.10;99.90
37410;DHT22;23275;48.914;12.566;2024-03-23T11:44:22;12.90;99.90
37410;DHT22;23275;48.914;12.566;2024-03-23T11:46:48;12.50;99.90
37410;DHT22;23275;48.914;12.566;2024-03-23T11:51:47;11.90;99.90
37410;DHT22;23275;48.914;12.566;2024-03-23T11:54:13;11.50;99.90
37410;DHT22;23275;48.914;12.566;2024-03-23T11:56:39;11.40;99.90
37410;DHT22;23275;48.914;12.566;2024-03-23T11:59:04;11.30;99.90
37410;DHT22;23275;48.914;12.566;2024-03-23T12:01:31;11.30;99.90
37410;DHT22;23275;48.914;12.566;2024-03-23T12:03:57;11.30;99.90
37410;DHT22;23275;48.914;12.566;2024-03-23T12:06:22;11.40;99.90
37410;DHT22;23275;48.914;12.566;2024-03-23T12:08:48;11.60;99.90
37410;DHT22;23275;48.914;12.566;2024-03-23T12:11:15;11.60;99.90
37410;DHT22;23275;48.914;12.566;2024-03-23T12:13:45;11.60;99.90
37410;DHT22;23275;48.914;12.566;2024-03-23T12:16:16;11.70;99.90
37410;DHT22;23275;48.914;12.566;2024-03-23T12:18:47;11.90;99.90
37410;DHT22;23275;48.914;12.566;2024-03-23T12:21:13;12.00;99.90
37410;DHT22;23275;48.914;12.566;2024-03-23T12:23:41;12.10;99.90
37410;DHT22;23275;48.914;12.566;2024-03-23T12:26:09;11.90;99.90
37410;DHT22;23275;48.914;12.566;2024-03-23T12:28:35;11.90;99.90
37410;DHT22;23275;48.914;12.566;2024-03-23T12:31:01;12.10;99.90
37410;DHT22;23275;48.914;12.566;2024-03-23T12:33:26;12.30;99.90
37410;DHT22;23275;48.914;12.566;2024-03-23T12:35:52;12.30;99.90
37410;DHT22;23275;48.914;12.566;2024-03-23T12:38:18;12.10;99.90
37410;DHT22;23275;48.914;12.566;2024-03-23T12:40:47;12.30;99.90
37410;DHT22;23275;48.914;12.566;2024-03-23T12:43:14;12.30;99.90
37410;DHT22;23275;48.914;12.566;2024-03-23T12:45:39;12.20;99.90
37410;DHT22;23275;48.914;12.566;2024-03-23T12:48:05;11.70;99.90
37410;DHT22;23275;48.914;12.566;2024-03-23T12:50:30;11.40;99.90
37410;DHT22;23275;48.914;12.566;2024-03-23T12:52:56;11.30;99.90
37410;DHT22;23275;48.914;12.566;2024-03-23T12:55:22;11.30;99.90
37410;DHT22;23275;48.914;12.566;2024-03-23T12:57:47;11.40;99.90
37410;DHT22;23275;48.914;12.566;2024-03-23T13:00:13;11.50;99.90
37410;DHT22;23275;48.914;12.566;2024-03-23T13:02:41;11.60;99.90
37410;DHT22;23275;48.914;12.566;2024-03-23T13:05:07;11.70;99.90
37410;DHT22;23275;48.914;12.566;2024-03-23T13:07:34;11.70;99.90
37410;DHT22;23275;48.914;12.566;2024-03-23T13:10:00;11.60;99.90
37410;DHT22;23275;48.914;12.566;2024-03-23T13:12:26;11.50;99.90
37410;DHT22;23275;48.914;12.566;2024-03-23T13:14:51;11.40;99.90
37410;DHT22;23275;48.914;12.566;2024-03-23T13:17:17;11.30;99.90
37410;DHT22;23275;48.914;12.566;2024-03-23T13:19:42;11.10;99.90
37410;DHT22;23275;48.914;12.566;2024-03-23T13:22:08;11.00;99.90
37410;DHT22;23275;48.914;12.566;2024-03-23T13:24:37;10.80;99.90
37410;DHT22;23275;48.914;12.566;2024-03-23T13:27:02;10.70;99.90
37410;DHT22;23275;48.914;12.566;2024-03-23T13:29:30;10.60;99.90
37410;DHT22;23275;48.914;12.566;2024-03-23T13:31:55;10.60;99.90
37410;DHT22;23275;48.914;12.566;2024-03-23T13:34:21;10.50;99.90
37410;DHT22;23275;48.914;12.566;2024-03-23T13:36:47;10.40;99.90
37410;DHT22;23275;48.914;12.566;2024-03-23T13:39:13;10.30;99.90
37410;DHT22;23275;48.914;12.566;2024-03-23T13:41:39;10.20;99.90
37410;DHT22;23275;48.914;12.566;2024-03-23T13:44:09;10.20;99.90
37410;DHT22;23275;48.914;12.566;2024-03-23T13:46:39;10.20;99.90
37410;DHT22;23275;48.914;12.566;2024-03-23T13:49:06;10.10;99.90
37410;DHT22;23275;48.914;12.566;2024-03-23T13:51:32;10.00;99.90
37410;DHT22;23275;48.914;12.566;2024-03-23T13:53:58;10.00;99.90
37410;DHT22;23275;48.914;12.566;2024-03-23T13:56:27;10.00;99.90
37410;DHT22;23275;48.914;12.566;2024-03-23T13:58:54;10.00;99.90
37410;DHT22;23275;48.914;12.566;2024-03-23T14:01:19;10.10;99.90
37410;DHT22;23275;48.914;12.566;2024-03-23T14:03:45;10.10;99.90
37410;DHT22;23275;48.914;12.566;2024-03-23T14:06:10;10.00;99.90
37410;DHT22;23275;48.914;12.566;2024-03-23T14:08:37;10.00;99.90
37410;DHT22;23275;48.914;12.566;2024-03-23T14:11:08;10.00;99.90
37410;DHT22;23275;48.914;12.566;2024-03-23T14:13:35;10.00;99.90
37410;DHT22;23275;48.914;12.566;2024-03-23T14:16:01;9.90;99.90
37410;DHT22;23275;48.914;12.566;2024-03-23T14:18:27;9.90;99.90
37410;DHT22;23275;48.914;12.566;2024-03-23T14:20:56;10.00;99.90
37410;DHT22;23275;48.914;12.566;2024-03-23T14:23:29;10.00;99.90
37410;DHT22;23275;48.914;12.566;2024-03-23T14:25:55;10.00;99.90
37410;DHT22;23275;48.914;12.566;2024-03-23T14:28:22;9.90;99.90
37410;DHT22;23275;48.914;12.566;2024-03-23T14:30:49;9.80;99.90
37410;DHT22;23275;48.914;12.566;2024-03-23T14:33:16;9.80;99.90
37410;DHT22;23275;48.914;12.566;2024-03-23T14:35:41;9.70;99.90
37410;DHT22;23275;48.914;12.566;2024-03-23T14:38:07;9.70;99.90
37410;DHT22;23275;48.914;12.566;2024-03-23T14:40:33;9.70;99.90
37410;DHT22;23275;48.914;12.566;2024-03-23T14:42:58;9.60;99.90
37410;DHT22;23275;48.914;12.566;2024-03-23T14:45:24;9.50;99.90
37410;DHT22;23275;48.914;12.566;2024-03-23T14:47:51;9.40;99.90
37410;DHT22;23275;48.914;12.566;2024-03-23T14:50:17;9.30;99.90
37410;DHT22;23275;48.914;12.566;2024-03-23T14:52:46;9.30;99.90
37410;DHT22;23275;48.914;12.566;2024-03-23T14:55:12;9.20;99.90
37410;DHT22;23275;48.914;12.566;2024-03-23T14:57:38;9.20;99.90
37410;DHT22;23275;48.914;12.566;2024-03-23T15:00:09;9.20;99.90
37410;DHT22;23275;48.914;12.566;2024-03-23T15:02:37;9.30;99.90
37410;DHT22;23275;48.914;12.566;2024-03-23T15:05:03;9.50;99.90
37410;DHT22;23275;48.914;12.566;2024-03-23T15:07:30;9.60;99.90
37410;DHT22;23275;48.914;12.566;2024-03-23T15:09:56;9.60;99.90
37410;DHT22;23275;48.914;12.566;2024-03-23T15:12:21;9.70;99.90
37410;DHT22;23275;48.914;12.566;2024-03-23T15:14:47;9.70;99.90
37410;DHT22;23275;48.914;12.566;2024-03-23T15:17:13;9.70;99.90
37410;DHT22;23275;48.914;12.566;2024-03-23T15:19:39;9.60;99.90
37410;DHT22;23275;48.914;12.566;2024-03-23T15:22:05;9.70;99.90
37410;DHT22;23275;48.914;12.566;2024-03-23T15:24:30;9.70;99.90
37410;DHT22;23275;48.914;12.566;2024-03-23T15:26:57;9.70;99.90
37410;DHT22;23275;48.914;12.566;2024-03-23T15:29:22;9.70;99.90
37410;DHT22;23275;48.914;12.566;2024-03-23T15:31:48;9.60;99.90
37410;DHT22;23275;48.914;12.566;2024-03-23T15:34:20;9.70;99.90
37410;DHT22;23275;48.914;12.566;2024-03-23T15:36:49;9.70;99.90
37410;DHT22;23275;48.914;12.566;2024-03-23T15:39:19;9.60;99.90
37410;DHT22;23275;48.914;12.566;2024-03-23T15:41:45;9.60;99.90
37410;DHT22;23275;48.914;12.566;2024-03-23T15:44:11;9.60;99.90
37410;DHT22;23275;48.914;12.566;2024-03-23T15:46:37;9.60;99.90
37410;DHT22;23275;48.914;12.566;2024-03-23T15:49:02;9.50;99.90
37410;DHT22;23275;48.914;12.566;2024-03-23T15:51:28;9.50;99.90
37410;DHT22;23275;48.914;12.566;2024-03-23T15:53:58;9.40;99.90
37410;DHT22;23275;48.914;12.566;2024-03-23T15:56:24;9.40;99.90
37410;DHT22;23275;48.914;12.566;2024-03-23T15:58:49;9.40;99.90
37410;DHT22;23275;48.914;12.566;2024-03-23T16:01:15;9.50;99.90
37410;DHT22;23275;48.914;12.566;2024-03-23T16:03:40;9.40;99.90
37410;DHT22;23275;48.914;12.566;2024-03-23T16:06:06;9.40;99.90
37410;DHT22;23275;48.914;12.566;2024-03-23T16:08:33;9.30;99.90
37410;DHT22;23275;48.914;12.566;2024-03-23T16:11:04;9.30;99.90
37410;DHT22;23275;48.914;12.566;2024-03-23T16:13:30;9.20;99.90
37410;DHT22;23275;48.914;12.566;2024-03-23T16:18:25;9.10;99.90
37410;DHT22;23275;48.914;12.566;2024-03-23T16:20:55;9.10;99.90